sensor_id;sensor_type;location;lat;lon;timestamp;P1;durP1;ratioP1;P2;durP2;ratioP2
7247;SDS011;3665;51.034;13.642;2022-12-17T00:04:05;48.20;;;29.63;;
7247;SDS011;3665;51.034;13.642;2022-12-17T00:09:07;45.30;;;29.17;;
7247;SDS011;3665;51.034;13.642;2022-12-17T00:14:09;47.20;;;28.97;;
7247;SDS011;3665;51.034;13.642;2022-12-17T00:19:17;49.67;;;31.03;;
7247;SDS011;3665;51.034;13.642;2022-12-17T00:24:18;50.20;;;29.40;;
7247;SDS011;3665;51.034;13.642;2022-12-17T00:29:21;50.37;;;30.83;;
7247;SDS011;3665;51.034;13.642;2022-12-17T00:34:27;53.77;;;30.53;;
7247;SDS011;3665;51.034;13.642;2022-12-17T00:39:29;48.93;;;31.13;;
7247;SDS011;3665;51.034;13.642;2022-12-17T00:44:43;48.63;;;31.50;;
7247;SDS011;3665;51.034;13.642;2022-12-17T01:03:50;50.53;;;29.33;;
7247;SDS011;3665;51.034;13.642;2022-12-17T01:09:06;55.17;;;33.00;;
7247;SDS011;3665;51.034;13.642;2022-12-17T01:14:09;49.90;;;30.70;;
7247;SDS011;3665;51.034;13.642;2022-12-17T01:19:17;55.57;;;31.80;;
7247;SDS011;3665;51.034;13.642;2022-12-17T01:24:20;55.80;;;32.47;;
7247;SDS011;3665;51.034;13.642;2022-12-17T01:29:22;53.03;;;31.13;;
7247;SDS011;3665;51.034;13.642;2022-12-17T01:34:25;55.03;;;32.50;;
7247;SDS011;3665;51.034;13.642;2022-12-17T01:39:49;58.00;;;33.63;;
7247;SDS011;3665;51.034;13.642;2022-12-17T01:45:07;52.00;;;30.87;;
7247;SDS011;3665;51.034;13.642;2022-12-17T01:50:11;54.17;;;32.50;;
7247;SDS011;3665;51.034;13.642;2022-12-17T01:55:16;49.67;;;30.50;;
7247;SDS011;3665;51.034;13.642;2022-12-17T02:06:11;62.83;;;32.57;;
7247;SDS011;3665;51.034;13.642;2022-12-17T02:11:33;54.73;;;32.53;;
7247;SDS011;3665;51.034;13.642;2022-12-17T02:16:49;58.73;;;32.83;;
7247;SDS011;3665;51.034;13.642;2022-12-17T02:22:03;59.87;;;32.83;;
7247;SDS011;3665;51.034;13.642;2022-12-17T02:27:35;55.43;;;32.60;;
7247;SDS011;3665;51.034;13.642;2022-12-17T02:39:49;54.73;;;31.43;;
7247;SDS011;3665;51.034;13.642;2022-12-17T02:46:14;64.67;;;33.10;;
7247;SDS011;3665;51.034;13.642;2022-12-17T02:58:14;56.67;;;33.70;;
7247;SDS011;3665;51.034;13.642;2022-12-17T03:17:24;52.77;;;30.27;;
7247;SDS011;3665;51.034;13.642;2022-12-17T03:22:42;54.00;;;31.67;;
7247;SDS011;3665;51.034;13.642;2022-12-17T03:40:51;53.63;;;32.10;;
7247;SDS011;3665;51.034;13.642;2022-12-17T03:46:43;58.80;;;31.77;;
7247;SDS011;3665;51.034;13.642;2022-12-17T03:51:49;61.83;;;34.63;;
7247;SDS011;3665;51.034;13.642;2022-12-17T03:56:51;60.50;;;34.37;;
7247;SDS011;3665;51.034;13.642;2022-12-17T04:02:59;56.47;;;33.70;;
7247;SDS011;3665;51.034;13.642;2022-12-17T04:15:17;53.50;;;30.80;;
7247;SDS011;3665;51.034;13.642;2022-12-17T04:20:19;57.50;;;31.17;;
7247;SDS011;3665;51.034;13.642;2022-12-17T04:25:45;57.07;;;32.07;;
7247;SDS011;3665;51.034;13.642;2022-12-17T04:37:55;55.60;;;30.97;;
7247;SDS011;3665;51.034;13.642;2022-12-17T04:54:30;58.03;;;31.07;;
7247;SDS011;3665;51.034;13.642;2022-12-17T04:59:54;59.97;;;33.53;;
7247;SDS011;3665;51.034;13.642;2022-12-17T05:05:11;57.67;;;31.37;;
7247;SDS011;3665;51.034;13.642;2022-12-17T05:10:43;60.20;;;30.70;;
7247;SDS011;3665;51.034;13.642;2022-12-17T05:21:22;55.63;;;30.70;;
7247;SDS011;3665;51.034;13.642;2022-12-17T05:26:28;58.13;;;31.97;;
7247;SDS011;3665;51.034;13.642;2022-12-17T05:31:31;63.77;;;32.77;;
7247;SDS011;3665;51.034;13.642;2022-12-17T05:37:05;57.10;;;30.80;;
7247;SDS011;3665;51.034;13.642;2022-12-17T05:42:13;55.53;;;31.43;;
7247;SDS011;3665;51.034;13.642;2022-12-17T05:53:54;56.43;;;29.27;;
7247;SDS011;3665;51.034;13.642;2022-12-17T05:59:00;56.00;;;30.23;;
7247;SDS011;3665;51.034;13.642;2022-12-17T06:04:02;59.43;;;33.43;;
7247;SDS011;3665;51.034;13.642;2022-12-17T06:09:07;61.60;;;31.13;;
7247;SDS011;3665;51.034;13.642;2022-12-17T06:14:35;57.57;;;31.57;;
7247;SDS011;3665;51.034;13.642;2022-12-17T06:51:37;65.70;;;34.70;;
7247;SDS011;3665;51.034;13.642;2022-12-17T06:57:08;63.67;;;33.03;;
7247;SDS011;3665;51.034;13.642;2022-12-17T07:02:28;60.80;;;32.40;;
7247;SDS011;3665;51.034;13.642;2022-12-17T07:07:46;65.77;;;33.47;;
7247;SDS011;3665;51.034;13.642;2022-12-17T07:13:44;69.37;;;37.00;;
7247;SDS011;3665;51.034;13.642;2022-12-17T07:19:17;69.77;;;37.77;;
7247;SDS011;3665;51.034;13.642;2022-12-17T07:24:18;65.47;;;36.00;;
7247;SDS011;3665;51.034;13.642;2022-12-17T07:29:59;75.33;;;39.00;;
7247;SDS011;3665;51.034;13.642;2022-12-17T07:35:19;74.63;;;38.17;;
7247;SDS011;3665;51.034;13.642;2022-12-17T07:40:38;80.47;;;41.97;;
7247;SDS011;3665;51.034;13.642;2022-12-17T07:45:57;83.33;;;40.80;;
7247;SDS011;3665;51.034;13.642;2022-12-17T07:56:50;83.07;;;38.40;;
7247;SDS011;3665;51.034;13.642;2022-12-17T08:08:36;89.00;;;42.43;;
7247;SDS011;3665;51.034;13.642;2022-12-17T08:19:21;90.50;;;38.50;;
7247;SDS011;3665;51.034;13.642;2022-12-17T08:24:39;97.07;;;40.63;;
7247;SDS011;3665;51.034;13.642;2022-12-17T08:43:04;89.37;;;40.80;;
7247;SDS011;3665;51.034;13.642;2022-12-17T08:49:11;107.73;;;42.77;;
7247;SDS011;3665;51.034;13.642;2022-12-17T09:08:09;92.30;;;37.80;;
7247;SDS011;3665;51.034;13.642;2022-12-17T09:19:14;102.20;;;38.90;;
7247;SDS011;3665;51.034;13.642;2022-12-17T09:24:21;94.97;;;39.40;;
7247;SDS011;3665;51.034;13.642;2022-12-17T09:29:39;104.93;;;40.47;;
7247;SDS011;3665;51.034;13.642;2022-12-17T09:34:44;98.23;;;38.40;;
7247;SDS011;3665;51.034;13.642;2022-12-17T09:40:10;99.33;;;40.57;;
7247;SDS011;3665;51.034;13.642;2022-12-17T09:46:42;94.77;;;37.77;;
7247;SDS011;3665;51.034;13.642;2022-12-17T10:17:55;86.60;;;36.70;;
7247;SDS011;3665;51.034;13.642;2022-12-17T10:28:59;98.67;;;36.50;;
7247;SDS011;3665;51.034;13.642;2022-12-17T10:34:20;89.33;;;36.80;;
7247;SDS011;3665;51.034;13.642;2022-12-17T10:39:53;87.10;;;35.30;;
7247;SDS011;3665;51.034;13.642;2022-12-17T10:45:23;57.17;;;26.77;;
7247;SDS011;3665;51.034;13.642;2022-12-17T10:50:44;60.17;;;25.80;;
7247;SDS011;3665;51.034;13.642;2022-12-17T11:01:46;55.90;;;27.17;;
7247;SDS011;3665;51.034;13.642;2022-12-17T11:07:00;65.93;;;29.43;;
7247;SDS011;3665;51.034;13.642;2022-12-17T11:12:02;59.33;;;27.93;;
7247;SDS011;3665;51.034;13.642;2022-12-17T11:23:05;62.33;;;28.47;;
7247;SDS011;3665;51.034;13.642;2022-12-17T11:28:39;61.30;;;29.27;;
7247;SDS011;3665;51.034;13.642;2022-12-17T11:34:12;56.97;;;27.13;;
7247;SDS011;3665;51.034;13.642;2022-12-17T11:39:36;51.67;;;26.57;;
7247;SDS011;3665;51.034;13.642;2022-12-17T11:45:12;46.27;;;23.87;;
7247;SDS011;3665;51.034;13.642;2022-12-17T12:28:38;41.27;;;22.13;;
7247;SDS011;3665;51.034;13.642;2022-12-17T12:58:42;40.20;;;19.87;;
7247;SDS011;3665;51.034;13.642;2022-12-17T13:04:20;32.10;;;18.70;;
7247;SDS011;3665;51.034;13.642;2022-12-17T13:09:54;33.70;;;18.33;;
7247;SDS011;3665;51.034;13.642;2022-12-17T13:15:40;34.63;;;19.80;;
7247;SDS011;3665;51.034;13.642;2022-12-17T13:20:36;35.33;;;19.67;;
7247;SDS011;3665;51.034;13.642;2022-12-17T13:26:14;39.60;;;20.00;;
7247;SDS011;3665;51.034;13.642;2022-12-17T13:31:24;33.33;;;18.37;;
7247;SDS011;3665;51.034;13.642;2022-12-17T13:37:08;35.43;;;18.67;;
7247;SDS011;3665;51.034;13.642;2022-12-17T13:55:32;38.37;;;20.53;;
7247;SDS011;3665;51.034;13.642;2022-12-17T14:06:16;31.83;;;18.80;;
7247;SDS011;3665;51.034;13.642;2022-12-17T14:11:35;33.47;;;19.67;;
7247;SDS011;3665;51.034;13.642;2022-12-17T14:17:05;33.63;;;20.70;;
7247;SDS011;3665;51.034;13.642;2022-12-17T14:22:28;32.63;;;19.03;;
7247;SDS011;3665;51.034;13.642;2022-12-17T14:27:48;30.33;;;18.47;;
7247;SDS011;3665;51.034;13.642;2022-12-17T14:46:12;32.90;;;19.60;;
7247;SDS011;3665;51.034;13.642;2022-12-17T14:51:20;25.07;;;16.10;;
7247;SDS011;3665;51.034;13.642;2022-12-17T14:56:33;28.93;;;17.73;;
7247;SDS011;3665;51.034;13.642;2022-12-17T15:01:40;31.03;;;17.27;;
7247;SDS011;3665;51.034;13.642;2022-12-17T15:06:43;31.00;;;19.07;;
7247;SDS011;3665;51.034;13.642;2022-12-17T15:11:54;35.33;;;17.90;;
7247;SDS011;3665;51.034;13.642;2022-12-17T15:17:25;34.30;;;19.37;;
7247;SDS011;3665;51.034;13.642;2022-12-17T15:22:43;30.43;;;19.37;;
7247;SDS011;3665;51.034;13.642;2022-12-17T15:28:18;31.40;;;18.00;;
7247;SDS011;3665;51.034;13.642;2022-12-17T15:33:25;29.33;;;18.30;;
7247;SDS011;3665;51.034;13.642;2022-12-17T15:38:46;55.70;;;32.93;;
7247;SDS011;3665;51.034;13.642;2022-12-17T15:43:46;33.10;;;19.83;;
7247;SDS011;3665;51.034;13.642;2022-12-17T15:49:07;63.10;;;43.40;;
7247;SDS011;3665;51.034;13.642;2022-12-17T15:54:49;63.77;;;42.47;;
7247;SDS011;3665;51.034;13.642;2022-12-17T16:00:18;33.93;;;22.40;;
7247;SDS011;3665;51.034;13.642;2022-12-17T16:05:26;41.83;;;27.50;;
7247;SDS011;3665;51.034;13.642;2022-12-17T16:11:30;69.70;;;46.80;;
7247;SDS011;3665;51.034;13.642;2022-12-17T16:16:36;55.80;;;33.77;;
7247;SDS011;3665;51.034;13.642;2022-12-17T16:21:43;29.20;;;18.77;;
7247;SDS011;3665;51.034;13.642;2022-12-17T16:26:59;37.37;;;24.63;;
7247;SDS011;3665;51.034;13.642;2022-12-17T16:32:18;54.97;;;38.30;;
7247;SDS011;3665;51.034;13.642;2022-12-17T16:37:39;31.20;;;19.73;;
7247;SDS011;3665;51.034;13.642;2022-12-17T16:43:04;36.43;;;22.47;;
7247;SDS011;3665;51.034;13.642;2022-12-17T16:48:07;31.60;;;19.13;;
7247;SDS011;3665;51.034;13.642;2022-12-17T16:53:29;31.73;;;19.97;;
7247;SDS011;3665;51.034;13.642;2022-12-17T17:04:37;34.20;;;20.63;;
7247;SDS011;3665;51.034;13.642;2022-12-17T17:10:11;27.77;;;15.87;;
7247;SDS011;3665;51.034;13.642;2022-12-17T17:15:18;41.93;;;24.83;;
7247;SDS011;3665;51.034;13.642;2022-12-17T17:20:34;107.77;;;66.93;;
7247;SDS011;3665;51.034;13.642;2022-12-17T17:25:23;38.77;;;23.93;;
7247;SDS011;3665;51.034;13.642;2022-12-17T17:31:07;43.97;;;27.23;;
7247;SDS011;3665;51.034;13.642;2022-12-17T17:49:06;29.10;;;19.13;;
7247;SDS011;3665;51.034;13.642;2022-12-17T17:54:25;32.37;;;20.17;;
7247;SDS011;3665;51.034;13.642;2022-12-17T17:59:33;25.83;;;15.20;;
7247;SDS011;3665;51.034;13.642;2022-12-17T18:04:35;28.33;;;15.80;;
7247;SDS011;3665;51.034;13.642;2022-12-17T18:09:39;24.90;;;13.87;;
7247;SDS011;3665;51.034;13.642;2022-12-17T18:14:29;25.93;;;13.40;;
7247;SDS011;3665;51.034;13.642;2022-12-17T18:25:52;28.37;;;17.77;;
7247;SDS011;3665;51.034;13.642;2022-12-17T18:30:29;31.60;;;17.17;;
7247;SDS011;3665;51.034;13.642;2022-12-17T18:35:32;30.13;;;18.33;;
7247;SDS011;3665;51.034;13.642;2022-12-17T18:40:18;28.97;;;18.13;;
7247;SDS011;3665;51.034;13.642;2022-12-17T18:45:15;38.50;;;21.73;;
7247;SDS011;3665;51.034;13.642;2022-12-17T18:50:11;36.03;;;22.57;;
7247;SDS011;3665;51.034;13.642;2022-12-17T18:55:07;47.07;;;28.20;;
7247;SDS011;3665;51.034;13.642;2022-12-17T19:00:01;52.23;;;32.57;;
7247;SDS011;3665;51.034;13.642;2022-12-17T19:04:51;49.80;;;31.43;;
7247;SDS011;3665;51.034;13.642;2022-12-17T19:09:41;46.67;;;28.87;;
7247;SDS011;3665;51.034;13.642;2022-12-17T19:14:29;43.13;;;27.27;;
7247;SDS011;3665;51.034;13.642;2022-12-17T19:19:33;55.63;;;31.90;;
7247;SDS011;3665;51.034;13.642;2022-12-17T19:24:33;50.77;;;28.43;;
7247;SDS011;3665;51.034;13.642;2022-12-17T19:29:22;47.47;;;27.13;;
7247;SDS011;3665;51.034;13.642;2022-12-17T19:34:13;42.60;;;27.03;;
7247;SDS011;3665;51.034;13.642;2022-12-17T19:39:00;46.30;;;27.60;;
7247;SDS011;3665;51.034;13.642;2022-12-17T19:43:51;40.17;;;23.57;;
7247;SDS011;3665;51.034;13.642;2022-12-17T19:48:55;38.57;;;24.77;;
7247;SDS011;3665;51.034;13.642;2022-12-17T19:59:29;45.83;;;28.37;;
7247;SDS011;3665;51.034;13.642;2022-12-17T20:04:20;41.33;;;24.37;;
7247;SDS011;3665;51.034;13.642;2022-12-17T20:09:07;40.47;;;24.63;;
7247;SDS011;3665;51.034;13.642;2022-12-17T20:14:00;44.33;;;25.77;;
7247;SDS011;3665;51.034;13.642;2022-12-17T20:18:59;47.23;;;25.27;;
7247;SDS011;3665;51.034;13.642;2022-12-17T20:23:46;39.77;;;24.27;;
7247;SDS011;3665;51.034;13.642;2022-12-17T20:28:34;40.77;;;21.93;;
7247;SDS011;3665;51.034;13.642;2022-12-17T20:33:22;40.87;;;24.30;;
7247;SDS011;3665;51.034;13.642;2022-12-17T20:38:09;38.43;;;23.03;;
7247;SDS011;3665;51.034;13.642;2022-12-17T20:43:00;37.13;;;20.63;;
7247;SDS011;3665;51.034;13.642;2022-12-17T20:47:47;37.37;;;20.70;;
7247;SDS011;3665;51.034;13.642;2022-12-17T20:52:33;37.00;;;22.97;;
7247;SDS011;3665;51.034;13.642;2022-12-17T20:57:22;38.50;;;22.30;;
7247;SDS011;3665;51.034;13.642;2022-12-17T21:02:11;39.73;;;22.73;;
7247;SDS011;3665;51.034;13.642;2022-12-17T21:06:59;32.20;;;20.67;;
7247;SDS011;3665;51.034;13.642;2022-12-17T21:11:47;37.43;;;21.63;;
7247;SDS011;3665;51.034;13.642;2022-12-17T21:16:34;36.40;;;23.13;;
7247;SDS011;3665;51.034;13.642;2022-12-17T21:21:23;35.10;;;21.27;;
7247;SDS011;3665;51.034;13.642;2022-12-17T21:26:17;36.03;;;22.33;;
7247;SDS011;3665;51.034;13.642;2022-12-17T21:38:35;32.23;;;19.97;;
7247;SDS011;3665;51.034;13.642;2022-12-17T21:43:31;35.10;;;19.77;;
7247;SDS011;3665;51.034;13.642;2022-12-17T21:48:18;32.00;;;18.33;;
7247;SDS011;3665;51.034;13.642;2022-12-17T21:53:05;32.03;;;19.80;;
7247;SDS011;3665;51.034;13.642;2022-12-17T21:57:55;33.93;;;20.00;;
7247;SDS011;3665;51.034;13.642;2022-12-17T22:02:42;29.83;;;18.77;;
7247;SDS011;3665;51.034;13.642;2022-12-17T22:07:30;27.63;;;17.40;;
7247;SDS011;3665;51.034;13.642;2022-12-17T22:12:42;33.37;;;19.63;;
7247;SDS011;3665;51.034;13.642;2022-12-17T22:17:56;35.43;;;18.37;;
7247;SDS011;3665;51.034;13.642;2022-12-17T22:22:41;34.20;;;19.00;;
7247;SDS011;3665;51.034;13.642;2022-12-17T22:27:31;26.93;;;16.67;;
7247;SDS011;3665;51.034;13.642;2022-12-17T22:32:17;29.50;;;17.17;;
7247;SDS011;3665;51.034;13.642;2022-12-17T22:37:23;26.03;;;16.97;;
7247;SDS011;3665;51.034;13.642;2022-12-17T22:42:27;30.40;;;17.40;;
7247;SDS011;3665;51.034;13.642;2022-12-17T22:58:27;29.97;;;17.97;;
7247;SDS011;3665;51.034;13.642;2022-12-17T23:03:15;30.07;;;18.70;;
7247;SDS011;3665;51.034;13.642;2022-12-17T23:08:01;28.73;;;17.40;;
7247;SDS011;3665;51.034;13.642;2022-12-17T23:18:04;28.30;;;17.23;;
7247;SDS011;3665;51.034;13.642;2022-12-17T23:22:58;26.63;;;16.87;;
7247;SDS011;3665;51.034;13.642;2022-12-17T23:27:47;24.50;;;16.00;;
7247;SDS011;3665;51.034;13.642;2022-12-17T23:32:37;26.57;;;16.93;;
7247;SDS011;3665;51.034;13.642;2022-12-17T23:37:21;24.40;;;15.77;;
7247;SDS011;3665;51.034;13.642;2022-12-17T23:42:09;27.40;;;15.13;;
7247;SDS011;3665;51.034;13.642;2022-12-17T23:46:57;22.47;;;15.53;;
7247;SDS011;3665;51.034;13.642;2022-12-17T23:51:51;24.53;;;15.97;;
7247;SDS011;3665;51.034;13.642;2022-12-17T23:56:35;22.17;;;14.50;;
